sensor_id;sensor_type;location;lat;lon;timestamp;P1;durP1;ratioP1;P2;durP2;ratioP2
6029;SDS011;3043;42.682;23.376;2022-11-12T00:00:38;36.23;;;20.87;;
6029;SDS011;3043;42.682;23.376;2022-11-12T00:03:04;36.20;;;21.23;;
6029;SDS011;3043;42.682;23.376;2022-11-12T00:05:30;35.23;;;20.70;;
6029;SDS011;3043;42.682;23.376;2022-11-12T00:07:56;35.10;;;20.60;;
6029;SDS011;3043;42.682;23.376;2022-11-12T00:10:22;36.03;;;21.57;;
6029;SDS011;3043;42.682;23.376;2022-11-12T00:12:47;34.87;;;21.10;;
6029;SDS011;3043;42.682;23.376;2022-11-12T00:15:13;35.17;;;21.17;;
6029;SDS011;3043;42.682;23.376;2022-11-12T00:17:39;41.20;;;21.90;;
6029;SDS011;3043;42.682;23.376;2022-11-12T00:20:05;35.43;;;21.80;;
6029;SDS011;3043;42.682;23.376;2022-11-12T00:22:31;35.37;;;20.77;;
6029;SDS011;3043;42.682;23.376;2022-11-12T00:24:57;33.50;;;20.83;;
6029;SDS011;3043;42.682;23.376;2022-11-12T00:27:22;34.73;;;21.23;;
6029;SDS011;3043;42.682;23.376;2022-11-12T00:29:48;37.03;;;22.30;;
6029;SDS011;3043;42.682;23.376;2022-11-12T00:32:13;37.20;;;22.27;;
6029;SDS011;3043;42.682;23.376;2022-11-12T00:34:39;34.33;;;20.30;;
6029;SDS011;3043;42.682;23.376;2022-11-12T00:37:04;34.73;;;20.90;;
6029;SDS011;3043;42.682;23.376;2022-11-12T00:39:31;35.13;;;21.33;;
6029;SDS011;3043;42.682;23.376;2022-11-12T00:41:57;32.40;;;20.80;;
6029;SDS011;3043;42.682;23.376;2022-11-12T00:44:22;32.47;;;20.53;;
6029;SDS011;3043;42.682;23.376;2022-11-12T00:46:48;32.77;;;20.70;;
6029;SDS011;3043;42.682;23.376;2022-11-12T00:49:14;32.60;;;20.37;;
6029;SDS011;3043;42.682;23.376;2022-11-12T00:51:40;31.40;;;19.10;;
6029;SDS011;3043;42.682;23.376;2022-11-12T00:54:05;36.40;;;21.43;;
6029;SDS011;3043;42.682;23.376;2022-11-12T00:56:31;30.47;;;20.53;;
6029;SDS011;3043;42.682;23.376;2022-11-12T00:58:57;30.40;;;19.47;;
6029;SDS011;3043;42.682;23.376;2022-11-12T01:01:23;33.03;;;21.03;;
6029;SDS011;3043;42.682;23.376;2022-11-12T01:03:49;29.47;;;18.47;;
6029;SDS011;3043;42.682;23.376;2022-11-12T01:06:16;32.13;;;20.07;;
6029;SDS011;3043;42.682;23.376;2022-11-12T01:08:44;32.47;;;19.60;;
6029;SDS011;3043;42.682;23.376;2022-11-12T01:11:15;30.47;;;18.80;;
6029;SDS011;3043;42.682;23.376;2022-11-12T01:13:43;28.73;;;18.03;;
6029;SDS011;3043;42.682;23.376;2022-11-12T01:16:12;32.33;;;18.73;;
6029;SDS011;3043;42.682;23.376;2022-11-12T01:18:44;31.87;;;19.00;;
6029;SDS011;3043;42.682;23.376;2022-11-12T01:21:10;33.17;;;19.50;;
6029;SDS011;3043;42.682;23.376;2022-11-12T01:23:36;34.20;;;20.43;;
6029;SDS011;3043;42.682;23.376;2022-11-12T01:26:07;37.33;;;21.10;;
6029;SDS011;3043;42.682;23.376;2022-11-12T01:28:35;36.47;;;21.83;;
6029;SDS011;3043;42.682;23.376;2022-11-12T01:33:40;29.37;;;17.53;;
6029;SDS011;3043;42.682;23.376;2022-11-12T01:36:07;23.93;;;15.23;;
6029;SDS011;3043;42.682;23.376;2022-11-12T01:38:34;19.03;;;12.23;;
6029;SDS011;3043;42.682;23.376;2022-11-12T01:41:00;19.60;;;11.40;;
6029;SDS011;3043;42.682;23.376;2022-11-12T01:43:25;19.00;;;12.00;;
6029;SDS011;3043;42.682;23.376;2022-11-12T01:45:51;19.23;;;10.87;;
6029;SDS011;3043;42.682;23.376;2022-11-12T01:48:32;19.27;;;11.37;;
6029;SDS011;3043;42.682;23.376;2022-11-12T01:51:01;15.67;;;10.23;;
6029;SDS011;3043;42.682;23.376;2022-11-12T01:53:28;17.97;;;10.07;;
6029;SDS011;3043;42.682;23.376;2022-11-12T01:55:58;16.87;;;9.53;;
6029;SDS011;3043;42.682;23.376;2022-11-12T01:58:27;14.50;;;8.57;;
6029;SDS011;3043;42.682;23.376;2022-11-12T02:00:55;14.70;;;8.20;;
6029;SDS011;3043;42.682;23.376;2022-11-12T02:03:22;15.17;;;8.37;;
6029;SDS011;3043;42.682;23.376;2022-11-12T02:06:22;15.63;;;8.43;;
6029;SDS011;3043;42.682;23.376;2022-11-12T02:08:41;14.90;;;7.77;;
6029;SDS011;3043;42.682;23.376;2022-11-12T02:11:10;12.33;;;8.07;;
6029;SDS011;3043;42.682;23.376;2022-11-12T02:13:40;11.10;;;7.20;;
6029;SDS011;3043;42.682;23.376;2022-11-12T02:16:26;11.37;;;6.70;;
6029;SDS011;3043;42.682;23.376;2022-11-12T02:18:55;12.07;;;6.97;;
6029;SDS011;3043;42.682;23.376;2022-11-12T02:21:21;13.73;;;7.67;;
6029;SDS011;3043;42.682;23.376;2022-11-12T02:23:57;11.67;;;6.60;;
6029;SDS011;3043;42.682;23.376;2022-11-12T02:26:27;11.53;;;7.07;;
6029;SDS011;3043;42.682;23.376;2022-11-12T02:28:57;12.17;;;7.23;;
6029;SDS011;3043;42.682;23.376;2022-11-12T02:31:23;11.93;;;6.87;;
6029;SDS011;3043;42.682;23.376;2022-11-12T02:33:48;12.03;;;6.90;;
6029;SDS011;3043;42.682;23.376;2022-11-12T02:36:13;16.17;;;6.70;;
6029;SDS011;3043;42.682;23.376;2022-11-12T02:38:39;11.60;;;6.50;;
6029;SDS011;3043;42.682;23.376;2022-11-12T02:41:04;10.40;;;6.40;;
6029;SDS011;3043;42.682;23.376;2022-11-12T02:43:30;10.73;;;5.57;;
6029;SDS011;3043;42.682;23.376;2022-11-12T02:45:55;10.07;;;6.33;;
6029;SDS011;3043;42.682;23.376;2022-11-12T02:48:21;10.63;;;6.70;;
6029;SDS011;3043;42.682;23.376;2022-11-12T02:50:46;9.23;;;5.70;;
6029;SDS011;3043;42.682;23.376;2022-11-12T02:53:12;11.37;;;6.83;;
6029;SDS011;3043;42.682;23.376;2022-11-12T02:55:38;10.80;;;6.33;;
6029;SDS011;3043;42.682;23.376;2022-11-12T02:58:03;11.53;;;7.17;;
6029;SDS011;3043;42.682;23.376;2022-11-12T03:00:29;11.67;;;7.03;;
6029;SDS011;3043;42.682;23.376;2022-11-12T03:02:54;13.13;;;7.27;;
6029;SDS011;3043;42.682;23.376;2022-11-12T03:05:23;11.27;;;6.87;;
6029;SDS011;3043;42.682;23.376;2022-11-12T03:07:54;10.50;;;6.50;;
6029;SDS011;3043;42.682;23.376;2022-11-12T03:10:24;11.17;;;6.77;;
6029;SDS011;3043;42.682;23.376;2022-11-12T03:12:50;10.33;;;6.10;;
6029;SDS011;3043;42.682;23.376;2022-11-12T03:15:16;9.30;;;5.63;;
6029;SDS011;3043;42.682;23.376;2022-11-12T03:17:42;11.57;;;6.90;;
6029;SDS011;3043;42.682;23.376;2022-11-12T03:20:08;10.90;;;6.73;;
6029;SDS011;3043;42.682;23.376;2022-11-12T03:22:35;10.63;;;6.90;;
6029;SDS011;3043;42.682;23.376;2022-11-12T03:25:01;11.17;;;6.37;;
6029;SDS011;3043;42.682;23.376;2022-11-12T03:27:26;11.73;;;6.47;;
6029;SDS011;3043;42.682;23.376;2022-11-12T03:29:52;10.97;;;6.63;;
6029;SDS011;3043;42.682;23.376;2022-11-12T03:32:17;9.83;;;6.30;;
6029;SDS011;3043;42.682;23.376;2022-11-12T03:34:43;13.27;;;7.07;;
6029;SDS011;3043;42.682;23.376;2022-11-12T03:37:08;10.13;;;5.77;;
6029;SDS011;3043;42.682;23.376;2022-11-12T03:39:34;10.57;;;6.13;;
6029;SDS011;3043;42.682;23.376;2022-11-12T03:42:00;10.93;;;6.70;;
6029;SDS011;3043;42.682;23.376;2022-11-12T03:44:26;11.93;;;6.80;;
6029;SDS011;3043;42.682;23.376;2022-11-12T03:46:52;9.57;;;5.73;;
6029;SDS011;3043;42.682;23.376;2022-11-12T03:49:17;9.87;;;5.87;;
6029;SDS011;3043;42.682;23.376;2022-11-12T03:51:42;11.03;;;6.23;;
6029;SDS011;3043;42.682;23.376;2022-11-12T03:54:08;9.77;;;6.30;;
6029;SDS011;3043;42.682;23.376;2022-11-12T03:56:33;10.87;;;6.40;;
6029;SDS011;3043;42.682;23.376;2022-11-12T03:58:59;11.77;;;6.63;;
6029;SDS011;3043;42.682;23.376;2022-11-12T04:01:24;9.87;;;5.83;;
6029;SDS011;3043;42.682;23.376;2022-11-12T04:03:50;10.00;;;6.60;;
6029;SDS011;3043;42.682;23.376;2022-11-12T04:06:15;11.37;;;6.03;;
6029;SDS011;3043;42.682;23.376;2022-11-12T04:08:59;9.73;;;5.83;;
6029;SDS011;3043;42.682;23.376;2022-11-12T04:11:25;9.30;;;5.87;;
6029;SDS011;3043;42.682;23.376;2022-11-12T04:13:50;9.67;;;6.20;;
6029;SDS011;3043;42.682;23.376;2022-11-12T04:16:17;14.30;;;8.30;;
6029;SDS011;3043;42.682;23.376;2022-11-12T04:19:03;11.97;;;6.63;;
6029;SDS011;3043;42.682;23.376;2022-11-12T04:21:50;11.90;;;6.67;;
6029;SDS011;3043;42.682;23.376;2022-11-12T04:24:30;10.67;;;5.60;;
6029;SDS011;3043;42.682;23.376;2022-11-12T04:27:20;10.33;;;5.77;;
6029;SDS011;3043;42.682;23.376;2022-11-12T04:29:47;11.00;;;5.70;;
6029;SDS011;3043;42.682;23.376;2022-11-12T04:32:32;8.70;;;5.50;;
6029;SDS011;3043;42.682;23.376;2022-11-12T04:35:02;10.60;;;5.83;;
6029;SDS011;3043;42.682;23.376;2022-11-12T04:37:30;11.07;;;6.40;;
6029;SDS011;3043;42.682;23.376;2022-11-12T04:40:17;11.83;;;6.33;;
6029;SDS011;3043;42.682;23.376;2022-11-12T04:43:03;11.60;;;5.97;;
6029;SDS011;3043;42.682;23.376;2022-11-12T04:45:49;11.47;;;6.37;;
6029;SDS011;3043;42.682;23.376;2022-11-12T04:48:16;9.80;;;5.47;;
6029;SDS011;3043;42.682;23.376;2022-11-12T04:50:43;10.93;;;6.07;;
6029;SDS011;3043;42.682;23.376;2022-11-12T04:53:11;10.10;;;6.00;;
6029;SDS011;3043;42.682;23.376;2022-11-12T04:55:37;12.63;;;6.20;;
6029;SDS011;3043;42.682;23.376;2022-11-12T04:58:03;10.40;;;5.90;;
6029;SDS011;3043;42.682;23.376;2022-11-12T05:00:28;11.10;;;6.70;;
6029;SDS011;3043;42.682;23.376;2022-11-12T05:02:54;8.67;;;5.53;;
6029;SDS011;3043;42.682;23.376;2022-11-12T05:05:19;10.07;;;5.93;;
6029;SDS011;3043;42.682;23.376;2022-11-12T05:07:45;11.97;;;5.53;;
6029;SDS011;3043;42.682;23.376;2022-11-12T05:10:10;9.93;;;6.17;;
6029;SDS011;3043;42.682;23.376;2022-11-12T05:12:35;10.43;;;5.77;;
6029;SDS011;3043;42.682;23.376;2022-11-12T05:15:01;10.27;;;5.70;;
6029;SDS011;3043;42.682;23.376;2022-11-12T05:17:27;9.20;;;6.07;;
6029;SDS011;3043;42.682;23.376;2022-11-12T05:19:53;9.40;;;6.00;;
6029;SDS011;3043;42.682;23.376;2022-11-12T05:22:18;9.97;;;6.40;;
6029;SDS011;3043;42.682;23.376;2022-11-12T05:24:44;10.37;;;6.50;;
6029;SDS011;3043;42.682;23.376;2022-11-12T05:27:10;9.73;;;6.03;;
6029;SDS011;3043;42.682;23.376;2022-11-12T05:29:38;9.73;;;6.27;;
6029;SDS011;3043;42.682;23.376;2022-11-12T05:32:07;11.77;;;7.20;;
6029;SDS011;3043;42.682;23.376;2022-11-12T05:34:34;11.30;;;6.33;;
6029;SDS011;3043;42.682;23.376;2022-11-12T05:37:00;12.30;;;7.30;;
6029;SDS011;3043;42.682;23.376;2022-11-12T05:39:27;11.80;;;7.77;;
6029;SDS011;3043;42.682;23.376;2022-11-12T05:41:53;12.13;;;7.43;;
6029;SDS011;3043;42.682;23.376;2022-11-12T05:44:18;11.53;;;7.37;;
6029;SDS011;3043;42.682;23.376;2022-11-12T05:46:44;12.27;;;7.47;;
6029;SDS011;3043;42.682;23.376;2022-11-12T05:49:09;11.83;;;7.27;;
6029;SDS011;3043;42.682;23.376;2022-11-12T05:51:35;13.13;;;7.27;;
6029;SDS011;3043;42.682;23.376;2022-11-12T05:54:00;11.90;;;7.20;;
6029;SDS011;3043;42.682;23.376;2022-11-12T05:56:26;12.83;;;8.07;;
6029;SDS011;3043;42.682;23.376;2022-11-12T05:58:52;19.97;;;11.63;;
6029;SDS011;3043;42.682;23.376;2022-11-12T06:01:18;13.90;;;8.03;;
6029;SDS011;3043;42.682;23.376;2022-11-12T06:03:43;13.40;;;7.80;;
6029;SDS011;3043;42.682;23.376;2022-11-12T06:06:09;11.20;;;7.47;;
6029;SDS011;3043;42.682;23.376;2022-11-12T06:08:34;13.50;;;7.17;;
6029;SDS011;3043;42.682;23.376;2022-11-12T06:11:00;11.50;;;7.37;;
6029;SDS011;3043;42.682;23.376;2022-11-12T06:13:25;11.83;;;7.23;;
6029;SDS011;3043;42.682;23.376;2022-11-12T06:15:52;11.47;;;6.67;;
6029;SDS011;3043;42.682;23.376;2022-11-12T06:18:19;15.67;;;8.47;;
6029;SDS011;3043;42.682;23.376;2022-11-12T06:20:45;14.10;;;8.93;;
6029;SDS011;3043;42.682;23.376;2022-11-12T06:23:31;13.20;;;8.07;;
6029;SDS011;3043;42.682;23.376;2022-11-12T06:25:56;14.67;;;10.00;;
6029;SDS011;3043;42.682;23.376;2022-11-12T06:28:22;9.97;;;6.83;;
6029;SDS011;3043;42.682;23.376;2022-11-12T06:30:47;12.23;;;7.90;;
6029;SDS011;3043;42.682;23.376;2022-11-12T06:33:13;12.13;;;7.97;;
6029;SDS011;3043;42.682;23.376;2022-11-12T06:35:38;14.80;;;8.23;;
6029;SDS011;3043;42.682;23.376;2022-11-12T06:38:04;13.97;;;8.67;;
6029;SDS011;3043;42.682;23.376;2022-11-12T06:40:29;11.87;;;7.40;;
6029;SDS011;3043;42.682;23.376;2022-11-12T06:42:55;11.73;;;7.90;;
6029;SDS011;3043;42.682;23.376;2022-11-12T06:45:23;11.83;;;8.00;;
6029;SDS011;3043;42.682;23.376;2022-11-12T06:47:49;10.60;;;7.27;;
6029;SDS011;3043;42.682;23.376;2022-11-12T06:50:14;11.13;;;7.60;;
6029;SDS011;3043;42.682;23.376;2022-11-12T06:52:40;13.53;;;8.27;;
6029;SDS011;3043;42.682;23.376;2022-11-12T06:55:06;11.00;;;7.50;;
6029;SDS011;3043;42.682;23.376;2022-11-12T06:57:35;12.93;;;8.13;;
6029;SDS011;3043;42.682;23.376;2022-11-12T07:00:00;16.43;;;10.83;;
6029;SDS011;3043;42.682;23.376;2022-11-12T07:02:26;17.33;;;10.70;;
6029;SDS011;3043;42.682;23.376;2022-11-12T07:04:51;15.67;;;9.93;;
6029;SDS011;3043;42.682;23.376;2022-11-12T07:07:17;15.43;;;9.37;;
6029;SDS011;3043;42.682;23.376;2022-11-12T07:09:42;14.70;;;8.83;;
6029;SDS011;3043;42.682;23.376;2022-11-12T07:12:08;11.93;;;8.77;;
6029;SDS011;3043;42.682;23.376;2022-11-12T07:14:33;12.70;;;8.43;;
6029;SDS011;3043;42.682;23.376;2022-11-12T07:16:59;13.63;;;8.60;;
6029;SDS011;3043;42.682;23.376;2022-11-12T07:19:24;14.27;;;8.47;;
6029;SDS011;3043;42.682;23.376;2022-11-12T07:21:50;13.37;;;8.37;;
6029;SDS011;3043;42.682;23.376;2022-11-12T07:24:17;10.47;;;6.97;;
6029;SDS011;3043;42.682;23.376;2022-11-12T07:26:42;11.93;;;8.10;;
6029;SDS011;3043;42.682;23.376;2022-11-12T07:29:08;13.37;;;7.40;;
6029;SDS011;3043;42.682;23.376;2022-11-12T07:31:33;10.80;;;6.47;;
6029;SDS011;3043;42.682;23.376;2022-11-12T07:33:59;9.60;;;6.47;;
6029;SDS011;3043;42.682;23.376;2022-11-12T07:36:25;11.83;;;7.20;;
6029;SDS011;3043;42.682;23.376;2022-11-12T07:38:51;9.40;;;5.70;;
6029;SDS011;3043;42.682;23.376;2022-11-12T07:41:19;9.63;;;5.40;;
6029;SDS011;3043;42.682;23.376;2022-11-12T07:43:48;10.37;;;5.83;;
6029;SDS011;3043;42.682;23.376;2022-11-12T07:46:16;9.77;;;5.37;;
6029;SDS011;3043;42.682;23.376;2022-11-12T07:48:43;11.70;;;5.43;;
6029;SDS011;3043;42.682;23.376;2022-11-12T07:51:14;8.07;;;4.80;;
6029;SDS011;3043;42.682;23.376;2022-11-12T07:53:42;8.57;;;5.70;;
6029;SDS011;3043;42.682;23.376;2022-11-12T07:56:09;8.93;;;5.30;;
6029;SDS011;3043;42.682;23.376;2022-11-12T07:58:36;10.10;;;5.73;;
6029;SDS011;3043;42.682;23.376;2022-11-12T08:03:51;9.40;;;5.97;;
6029;SDS011;3043;42.682;23.376;2022-11-12T08:06:17;9.70;;;5.50;;
6029;SDS011;3043;42.682;23.376;2022-11-12T08:08:42;10.47;;;5.90;;
6029;SDS011;3043;42.682;23.376;2022-11-12T08:11:08;8.30;;;5.23;;
6029;SDS011;3043;42.682;23.376;2022-11-12T08:13:33;10.20;;;5.70;;
6029;SDS011;3043;42.682;23.376;2022-11-12T08:15:59;9.37;;;5.80;;
6029;SDS011;3043;42.682;23.376;2022-11-12T08:18:24;10.63;;;6.03;;
6029;SDS011;3043;42.682;23.376;2022-11-12T08:20:50;10.77;;;5.70;;
6029;SDS011;3043;42.682;23.376;2022-11-12T08:23:16;10.40;;;6.13;;
6029;SDS011;3043;42.682;23.376;2022-11-12T08:25:41;9.97;;;6.40;;
6029;SDS011;3043;42.682;23.376;2022-11-12T08:28:07;9.73;;;5.97;;
6029;SDS011;3043;42.682;23.376;2022-11-12T08:30:33;11.10;;;6.20;;
6029;SDS011;3043;42.682;23.376;2022-11-12T08:33:00;10.20;;;6.40;;
6029;SDS011;3043;42.682;23.376;2022-11-12T08:35:28;11.27;;;6.83;;
6029;SDS011;3043;42.682;23.376;2022-11-12T08:40:24;10.17;;;6.27;;
6029;SDS011;3043;42.682;23.376;2022-11-12T08:42:58;12.13;;;7.23;;
6029;SDS011;3043;42.682;23.376;2022-11-12T08:45:25;9.87;;;5.57;;
6029;SDS011;3043;42.682;23.376;2022-11-12T08:47:51;9.90;;;5.47;;
6029;SDS011;3043;42.682;23.376;2022-11-12T08:50:17;10.33;;;5.30;;
6029;SDS011;3043;42.682;23.376;2022-11-12T08:52:42;11.07;;;6.40;;
6029;SDS011;3043;42.682;23.376;2022-11-12T08:55:08;10.50;;;5.43;;
6029;SDS011;3043;42.682;23.376;2022-11-12T08:57:40;10.13;;;4.97;;
6029;SDS011;3043;42.682;23.376;2022-11-12T09:00:07;11.47;;;5.40;;
6029;SDS011;3043;42.682;23.376;2022-11-12T09:02:36;9.63;;;5.77;;
6029;SDS011;3043;42.682;23.376;2022-11-12T09:05:02;10.43;;;5.37;;
6029;SDS011;3043;42.682;23.376;2022-11-12T09:07:28;10.17;;;5.67;;
6029;SDS011;3043;42.682;23.376;2022-11-12T09:09:53;10.03;;;5.47;;
6029;SDS011;3043;42.682;23.376;2022-11-12T09:12:19;9.67;;;5.87;;
6029;SDS011;3043;42.682;23.376;2022-11-12T09:14:44;9.27;;;5.17;;
6029;SDS011;3043;42.682;23.376;2022-11-12T09:17:10;8.83;;;5.17;;
6029;SDS011;3043;42.682;23.376;2022-11-12T09:19:36;8.07;;;4.53;;
6029;SDS011;3043;42.682;23.376;2022-11-12T09:22:02;6.23;;;3.70;;
6029;SDS011;3043;42.682;23.376;2022-11-12T09:24:28;7.47;;;4.80;;
6029;SDS011;3043;42.682;23.376;2022-11-12T09:26:54;6.10;;;3.20;;
6029;SDS011;3043;42.682;23.376;2022-11-12T09:29:19;7.43;;;3.03;;
6029;SDS011;3043;42.682;23.376;2022-11-12T09:31:45;9.37;;;3.10;;
6029;SDS011;3043;42.682;23.376;2022-11-12T09:34:11;6.20;;;3.10;;
6029;SDS011;3043;42.682;23.376;2022-11-12T09:36:37;5.10;;;2.80;;
6029;SDS011;3043;42.682;23.376;2022-11-12T09:39:03;6.90;;;3.70;;
6029;SDS011;3043;42.682;23.376;2022-11-12T09:41:38;6.60;;;3.53;;
6029;SDS011;3043;42.682;23.376;2022-11-12T09:46:50;7.20;;;3.17;;
6029;SDS011;3043;42.682;23.376;2022-11-12T09:49:26;6.17;;;3.23;;
6029;SDS011;3043;42.682;23.376;2022-11-12T09:52:40;6.43;;;3.50;;
6029;SDS011;3043;42.682;23.376;2022-11-12T09:54:56;7.07;;;3.50;;
6029;SDS011;3043;42.682;23.376;2022-11-12T09:57:44;7.70;;;3.20;;
6029;SDS011;3043;42.682;23.376;2022-11-12T10:00:16;5.67;;;3.13;;
6029;SDS011;3043;42.682;23.376;2022-11-12T10:02:54;9.13;;;3.23;;
6029;SDS011;3043;42.682;23.376;2022-11-12T10:15:49;7.00;;;3.30;;
6029;SDS011;3043;42.682;23.376;2022-11-12T10:24:13;7.67;;;4.13;;
6029;SDS011;3043;42.682;23.376;2022-11-12T10:26:39;6.77;;;3.80;;
6029;SDS011;3043;42.682;23.376;2022-11-12T10:31:36;7.63;;;4.00;;
6029;SDS011;3043;42.682;23.376;2022-11-12T10:34:15;6.47;;;4.00;;
6029;SDS011;3043;42.682;23.376;2022-11-12T10:36:53;8.20;;;4.43;;
6029;SDS011;3043;42.682;23.376;2022-11-12T10:42:04;7.37;;;4.03;;
6029;SDS011;3043;42.682;23.376;2022-11-12T10:44:35;7.57;;;4.27;;
6029;SDS011;3043;42.682;23.376;2022-11-12T10:52:34;8.57;;;3.90;;
6029;SDS011;3043;42.682;23.376;2022-11-12T10:55:05;10.30;;;3.90;;
6029;SDS011;3043;42.682;23.376;2022-11-12T10:57:38;6.77;;;3.80;;
6029;SDS011;3043;42.682;23.376;2022-11-12T11:00:13;6.43;;;3.70;;
6029;SDS011;3043;42.682;23.376;2022-11-12T11:03:14;6.90;;;3.80;;
6029;SDS011;3043;42.682;23.376;2022-11-12T11:08:09;8.37;;;3.90;;
6029;SDS011;3043;42.682;23.376;2022-11-12T11:10:35;8.47;;;3.70;;
6029;SDS011;3043;42.682;23.376;2022-11-12T11:16:01;7.03;;;3.83;;
6029;SDS011;3043;42.682;23.376;2022-11-12T11:18:29;9.00;;;4.80;;
6029;SDS011;3043;42.682;23.376;2022-11-12T11:21:17;11.77;;;7.63;;
6029;SDS011;3043;42.682;23.376;2022-11-12T11:46:34;7.53;;;3.80;;
6029;SDS011;3043;42.682;23.376;2022-11-12T11:57:39;8.83;;;3.80;;
6029;SDS011;3043;42.682;23.376;2022-11-12T12:00:20;8.13;;;4.20;;
6029;SDS011;3043;42.682;23.376;2022-11-12T12:06:22;6.43;;;3.60;;
6029;SDS011;3043;42.682;23.376;2022-11-12T12:17:07;6.10;;;3.43;;
6029;SDS011;3043;42.682;23.376;2022-11-12T12:20:13;5.77;;;3.40;;
6029;SDS011;3043;42.682;23.376;2022-11-12T12:22:45;7.50;;;3.53;;
6029;SDS011;3043;42.682;23.376;2022-11-12T12:25:34;6.83;;;2.93;;
6029;SDS011;3043;42.682;23.376;2022-11-12T12:28:22;5.20;;;3.20;;
6029;SDS011;3043;42.682;23.376;2022-11-12T12:30:53;5.63;;;2.90;;
6029;SDS011;3043;42.682;23.376;2022-11-12T12:33:35;4.17;;;2.53;;
6029;SDS011;3043;42.682;23.376;2022-11-12T12:36:08;6.87;;;3.30;;
6029;SDS011;3043;42.682;23.376;2022-11-12T12:38:50;9.03;;;4.63;;
6029;SDS011;3043;42.682;23.376;2022-11-12T12:44:15;8.23;;;5.20;;
6029;SDS011;3043;42.682;23.376;2022-11-12T12:46:48;7.93;;;4.60;;
6029;SDS011;3043;42.682;23.376;2022-11-12T12:49:20;6.90;;;3.60;;
6029;SDS011;3043;42.682;23.376;2022-11-12T12:51:52;17.83;;;8.97;;
6029;SDS011;3043;42.682;23.376;2022-11-12T12:56:58;6.27;;;3.83;;
6029;SDS011;3043;42.682;23.376;2022-11-12T12:59:23;5.73;;;2.87;;
6029;SDS011;3043;42.682;23.376;2022-11-12T13:02:12;7.87;;;3.13;;
6029;SDS011;3043;42.682;23.376;2022-11-12T13:04:51;5.27;;;3.30;;
6029;SDS011;3043;42.682;23.376;2022-11-12T13:08:04;5.70;;;3.10;;
6029;SDS011;3043;42.682;23.376;2022-11-12T13:18:10;7.97;;;4.77;;
6029;SDS011;3043;42.682;23.376;2022-11-12T13:20:38;7.03;;;3.43;;
6029;SDS011;3043;42.682;23.376;2022-11-12T13:23:08;6.93;;;3.57;;
6029;SDS011;3043;42.682;23.376;2022-11-12T13:25:36;6.13;;;3.23;;
6029;SDS011;3043;42.682;23.376;2022-11-12T13:32:53;5.70;;;3.30;;
6029;SDS011;3043;42.682;23.376;2022-11-12T13:42:50;6.90;;;3.43;;
6029;SDS011;3043;42.682;23.376;2022-11-12T13:45:18;5.77;;;3.20;;
6029;SDS011;3043;42.682;23.376;2022-11-12T13:47:46;7.47;;;3.50;;
6029;SDS011;3043;42.682;23.376;2022-11-12T13:50:14;6.77;;;3.43;;
6029;SDS011;3043;42.682;23.376;2022-11-12T13:52:43;6.67;;;3.53;;
6029;SDS011;3043;42.682;23.376;2022-11-12T13:55:17;7.40;;;4.23;;
6029;SDS011;3043;42.682;23.376;2022-11-12T13:57:50;7.67;;;3.67;;
6029;SDS011;3043;42.682;23.376;2022-11-12T14:02:45;7.77;;;4.23;;
6029;SDS011;3043;42.682;23.376;2022-11-12T14:05:15;8.20;;;4.47;;
6029;SDS011;3043;42.682;23.376;2022-11-12T14:13:05;7.37;;;4.27;;
6029;SDS011;3043;42.682;23.376;2022-11-12T14:21:10;6.80;;;4.10;;
6029;SDS011;3043;42.682;23.376;2022-11-12T14:23:40;8.40;;;5.43;;
6029;SDS011;3043;42.682;23.376;2022-11-12T14:26:12;7.53;;;3.80;;
6029;SDS011;3043;42.682;23.376;2022-11-12T14:28:57;8.67;;;4.37;;
6029;SDS011;3043;42.682;23.376;2022-11-12T14:31:24;6.60;;;3.53;;
6029;SDS011;3043;42.682;23.376;2022-11-12T14:33:50;7.07;;;4.00;;
6029;SDS011;3043;42.682;23.376;2022-11-12T14:36:15;7.63;;;4.53;;
6029;SDS011;3043;42.682;23.376;2022-11-12T14:38:52;7.97;;;4.20;;
6029;SDS011;3043;42.682;23.376;2022-11-12T14:41:34;12.10;;;7.10;;
6029;SDS011;3043;42.682;23.376;2022-11-12T14:44:03;7.07;;;4.30;;
6029;SDS011;3043;42.682;23.376;2022-11-12T14:49:14;9.57;;;4.33;;
6029;SDS011;3043;42.682;23.376;2022-11-12T14:51:46;8.50;;;4.23;;
6029;SDS011;3043;42.682;23.376;2022-11-12T14:54:17;8.33;;;4.87;;
6029;SDS011;3043;42.682;23.376;2022-11-12T14:56:50;9.37;;;4.40;;
6029;SDS011;3043;42.682;23.376;2022-11-12T14:59:16;9.33;;;4.83;;
6029;SDS011;3043;42.682;23.376;2022-11-12T15:04:36;8.33;;;4.63;;
6029;SDS011;3043;42.682;23.376;2022-11-12T15:07:23;8.93;;;5.47;;
6029;SDS011;3043;42.682;23.376;2022-11-12T15:09:53;9.17;;;4.90;;
6029;SDS011;3043;42.682;23.376;2022-11-12T15:12:19;9.03;;;5.43;;
6029;SDS011;3043;42.682;23.376;2022-11-12T15:14:48;7.90;;;4.73;;
6029;SDS011;3043;42.682;23.376;2022-11-12T15:17:30;13.67;;;8.27;;
6029;SDS011;3043;42.682;23.376;2022-11-12T15:20:31;9.00;;;5.00;;
6029;SDS011;3043;42.682;23.376;2022-11-12T15:22:50;8.43;;;5.10;;
6029;SDS011;3043;42.682;23.376;2022-11-12T15:25:24;9.27;;;5.47;;
6029;SDS011;3043;42.682;23.376;2022-11-12T15:27:54;10.03;;;5.37;;
6029;SDS011;3043;42.682;23.376;2022-11-12T15:30:35;10.03;;;5.80;;
6029;SDS011;3043;42.682;23.376;2022-11-12T15:35:35;8.40;;;4.50;;
6029;SDS011;3043;42.682;23.376;2022-11-12T15:38:04;9.53;;;4.70;;
6029;SDS011;3043;42.682;23.376;2022-11-12T15:40:43;9.60;;;4.77;;
6029;SDS011;3043;42.682;23.376;2022-11-12T15:43:11;8.97;;;4.83;;
6029;SDS011;3043;42.682;23.376;2022-11-12T15:45:40;9.73;;;5.10;;
6029;SDS011;3043;42.682;23.376;2022-11-12T15:48:07;11.03;;;5.20;;
6029;SDS011;3043;42.682;23.376;2022-11-12T15:50:35;11.10;;;6.20;;
6029;SDS011;3043;42.682;23.376;2022-11-12T15:53:00;15.17;;;8.37;;
6029;SDS011;3043;42.682;23.376;2022-11-12T15:55:26;10.27;;;6.10;;
6029;SDS011;3043;42.682;23.376;2022-11-12T15:57:51;14.10;;;8.37;;
6029;SDS011;3043;42.682;23.376;2022-11-12T16:00:18;19.83;;;11.20;;
6029;SDS011;3043;42.682;23.376;2022-11-12T16:02:50;18.00;;;9.40;;
6029;SDS011;3043;42.682;23.376;2022-11-12T16:05:20;18.03;;;10.47;;
6029;SDS011;3043;42.682;23.376;2022-11-12T16:07:45;12.33;;;7.40;;
6029;SDS011;3043;42.682;23.376;2022-11-12T16:10:12;8.83;;;5.50;;
6029;SDS011;3043;42.682;23.376;2022-11-12T16:12:38;9.33;;;5.03;;
6029;SDS011;3043;42.682;23.376;2022-11-12T16:15:08;9.03;;;5.43;;
6029;SDS011;3043;42.682;23.376;2022-11-12T16:17:41;9.60;;;5.60;;
6029;SDS011;3043;42.682;23.376;2022-11-12T16:20:14;10.53;;;5.97;;
6029;SDS011;3043;42.682;23.376;2022-11-12T16:22:41;17.07;;;11.47;;
6029;SDS011;3043;42.682;23.376;2022-11-12T16:25:06;13.47;;;6.03;;
6029;SDS011;3043;42.682;23.376;2022-11-12T16:27:32;15.00;;;7.93;;
6029;SDS011;3043;42.682;23.376;2022-11-12T16:29:58;16.60;;;9.37;;
6029;SDS011;3043;42.682;23.376;2022-11-12T16:32:24;17.07;;;10.87;;
6029;SDS011;3043;42.682;23.376;2022-11-12T16:34:49;13.87;;;8.30;;
6029;SDS011;3043;42.682;23.376;2022-11-12T16:37:15;16.17;;;9.33;;
6029;SDS011;3043;42.682;23.376;2022-11-12T16:39:40;49.10;;;43.53;;
6029;SDS011;3043;42.682;23.376;2022-11-12T16:42:08;38.87;;;34.60;;
6029;SDS011;3043;42.682;23.376;2022-11-12T16:44:34;25.77;;;21.77;;
6029;SDS011;3043;42.682;23.376;2022-11-12T16:47:03;40.00;;;34.80;;
6029;SDS011;3043;42.682;23.376;2022-11-12T16:49:30;35.17;;;27.67;;
6029;SDS011;3043;42.682;23.376;2022-11-12T16:51:55;28.97;;;24.07;;
6029;SDS011;3043;42.682;23.376;2022-11-12T16:54:21;16.23;;;10.27;;
6029;SDS011;3043;42.682;23.376;2022-11-12T16:56:46;18.43;;;11.07;;
6029;SDS011;3043;42.682;23.376;2022-11-12T16:59:12;17.90;;;10.53;;
6029;SDS011;3043;42.682;23.376;2022-11-12T17:01:40;14.93;;;9.30;;
6029;SDS011;3043;42.682;23.376;2022-11-12T17:04:05;17.07;;;11.03;;
6029;SDS011;3043;42.682;23.376;2022-11-12T17:06:32;14.33;;;9.80;;
6029;SDS011;3043;42.682;23.376;2022-11-12T17:09:03;15.87;;;10.00;;
6029;SDS011;3043;42.682;23.376;2022-11-12T17:11:29;17.83;;;9.60;;
6029;SDS011;3043;42.682;23.376;2022-11-12T17:13:55;17.30;;;10.60;;